Time;durP1;ratioP1;P1;durP2;ratioP2;P2;SDS_P1;SDS_P2;PMS_P1;PMS_P2;Temp;Humidity;BMP_temperature;BMP_pressure;BME280_temperature;BME280_humidity;BME280_pressure;Samples;Min_cycle;Max_cycle;Signal;HPM_P1;HPM_P2
2023/03/26 00:01:12;;;;;;;30.88;4.40;;;;;;;;;;4961210;28;20053;-69
2023/03/26 00:03:39;;;;;;;19.55;3.70;;;;;;;;;;4962979;28;20065;-69
2023/03/26 00:06:08;;;;;;;14.70;3.08;;;;;;;;;;4948464;28;20079;-69
2023/03/26 00:08:35;;;;;;;31.70;4.15;;;;;;;;;;4947634;28;20051;-69
2023/03/26 00:11:02;;;;;;;34.92;4.78;;;;;;;;;;4946687;28;20522;-69
2023/03/26 00:13:28;;;;;;;22.85;3.97;;;;;;;;;;4963157;28;20031;-69
2023/03/26 00:15:54;;;;;;;23.52;4.32;;;;;;;;;;4945526;28;20047;-69
2023/03/26 00:18:23;;;;;;;21.25;4.07;;;;;;;;;;4946871;28;20046;-69
2023/03/26 00:20:50;;;;;;;19.48;4.05;;;;;;;;;;4949384;28;20626;-69
2023/03/26 00:23:16;;;;;;;31.15;5.13;;;;;;;;;;4946678;28;20258;-69
2023/03/26 00:25:44;;;;;;;24.27;3.97;;;;;;;;;;4946624;28;20128;-69
2023/03/26 00:28:10;;;;;;;28.17;4.57;;;;;;;;;;4950880;28;20049;-69
2023/03/26 00:30:40;;;;;;;23.85;4.53;;;;;;;;;;4944227;28;20137;-68
2023/03/26 00:33:06;;;;;;;32.55;5.03;;;;;;;;;;4955893;28;20055;-69
2023/03/26 00:35:35;;;;;;;25.27;4.30;;;;;;;;;;4962850;28;20039;-69
2023/03/26 00:38:01;;;;;;;22.98;4.13;;;;;;;;;;4962094;28;20517;-69
2023/03/26 00:40:28;;;;;;;29.42;5.40;;;;;;;;;;4958832;28;20399;-69
2023/03/26 00:42:55;;;;;;;30.85;4.22;;;;;;;;;;4959921;28;20451;-69
2023/03/26 00:45:22;;;;;;;25.60;6.00;;;;;;;;;;4960890;28;20088;-69
2023/03/26 00:47:48;;;;;;;24.10;3.70;;;;;;;;;;4944550;28;20086;-69
2023/03/26 00:50:15;;;;;;;21.35;4.65;;;;;;;;;;4960048;28;20049;-69
2023/03/26 00:52:42;;;;;;;30.58;4.78;;;;;;;;;;4959322;28;20093;-69
2023/03/26 00:55:09;;;;;;;25.25;4.95;;;;;;;;;;4960424;28;20058;-69
2023/03/26 00:57:36;;;;;;;27.80;4.10;;;;;;;;;;4962039;28;20043;-69
2023/03/26 01:00:05;;;;;;;24.23;3.92;;;;;;;;;;4957248;28;20053;-69
2023/03/26 01:02:32;;;;;;;24.98;3.88;;;;;;;;;;4962610;28;20475;-69
2023/03/26 01:05:01;;;;;;;24.70;4.45;;;;;;;;;;4929019;28;20101;-69
2023/03/26 01:07:29;;;;;;;29.45;4.65;;;;;;;;;;4961875;28;20098;-69
2023/03/26 01:09:57;;;;;;;25.50;3.85;;;;;;;;;;4946420;28;20054;-69
2023/03/26 01:12:25;;;;;;;26.60;3.95;;;;;;;;;;4962856;28;20458;-69
2023/03/26 01:14:52;;;;;;;29.33;3.58;;;;;;;;;;4959890;28;20185;-69
2023/03/26 01:17:20;;;;;;;24.23;5.28;;;;;;;;;;4960592;28;20047;-69
2023/03/26 01:19:47;;;;;;;23.55;4.22;;;;;;;;;;4942850;28;20082;-69
2023/03/26 01:22:15;;;;;;;31.67;4.30;;;;;;;;;;4962365;28;20055;-69
2023/03/26 01:24:44;;;;;;;25.15;4.47;;;;;;;;;;4959057;28;20043;-69
2023/03/26 01:27:16;;;;;;;26.90;3.38;;;;;;;;;;4959964;28;20058;-69
2023/03/26 01:29:46;;;;;;;31.58;4.10;;;;;;;;;;4960930;28;20043;-69
2023/03/26 01:32:19;;;;;;;24.10;4.55;;;;;;;;;;4955191;28;20094;-69
2023/03/26 01:34:56;;;;;;;44.60;5.13;;;;;;;;;;4960048;28;20042;-69
2023/03/26 01:37:26;;;;;;;23.92;3.63;;;;;;;;;;4961198;28;20062;-69
2023/03/26 01:39:56;;;;;;;21.50;3.95;;;;;;;;;;4963191;28;20471;-69
2023/03/26 01:42:40;;;;;;;28.25;3.85;;;;;;;;;;4958826;28;20031;-69
2023/03/26 01:45:09;;;;;;;29.67;5.40;;;;;;;;;;4956844;28;20801;-69
2023/03/26 01:47:36;;;;;;;23.27;3.83;;;;;;;;;;4961941;28;20130;-69
2023/03/26 01:50:02;;;;;;;25.05;3.30;;;;;;;;;;4960801;28;20058;-69
2023/03/26 01:52:28;;;;;;;29.33;3.60;;;;;;;;;;4959250;28;20126;-69
2023/03/26 01:54:55;;;;;;;26.75;4.28;;;;;;;;;;4959605;28;20046;-69
2023/03/26 01:57:29;;;;;;;26.65;3.95;;;;;;;;;;4960320;28;20170;-69
2023/03/26 01:59:55;;;;;;;37.75;5.22;;;;;;;;;;4960526;28;20054;-69
2023/03/26 02:02:28;;;;;;;28.60;4.40;;;;;;;;;;4959253;28;20122;-69
2023/03/26 02:05:07;;;;;;;32.20;4.88;;;;;;;;;;4964069;28;20051;-69
2023/03/26 02:07:54;;;;;;;27.13;3.70;;;;;;;;;;4962962;28;20047;-69
2023/03/26 02:10:29;;;;;;;31.13;4.93;;;;;;;;;;4961174;28;20568;-69
2023/03/26 02:12:55;;;;;;;23.05;4.70;;;;;;;;;;4963536;28;20042;-70
2023/03/26 02:15:22;;;;;;;21.80;4.25;;;;;;;;;;4960724;28;20113;-68
2023/03/26 02:17:48;;;;;;;21.83;4.63;;;;;;;;;;4963436;28;20038;-69
2023/03/26 02:20:17;;;;;;;33.88;4.38;;;;;;;;;;4964614;28;20122;-68
2023/03/26 02:22:46;;;;;;;26.60;4.30;;;;;;;;;;4964279;28;20105;-69
2023/03/26 02:25:14;;;;;;;22.83;5.03;;;;;;;;;;4962849;28;20046;-68
2023/03/26 02:27:40;;;;;;;29.35;5.18;;;;;;;;;;4960475;28;20045;-68
2023/03/26 02:30:08;;;;;;;27.20;4.45;;;;;;;;;;4961972;28;20066;-68
2023/03/26 02:32:34;;;;;;;34.80;4.60;;;;;;;;;;4962911;28;20055;-69
2023/03/26 02:35:01;;;;;;;21.20;4.50;;;;;;;;;;4963677;28;20419;-68
2023/03/26 02:37:29;;;;;;;32.83;5.57;;;;;;;;;;4943392;28;20101;-68
2023/03/26 02:39:55;;;;;;;22.63;4.30;;;;;;;;;;4943051;28;20476;-68
2023/03/26 02:42:21;;;;;;;26.95;4.30;;;;;;;;;;4960736;28;20461;-68
2023/03/26 02:44:47;;;;;;;28.92;5.15;;;;;;;;;;4956700;28;20641;-68
2023/03/26 02:47:14;;;;;;;35.30;4.50;;;;;;;;;;4959991;28;20078;-68
2023/03/26 02:49:40;;;;;;;35.63;4.93;;;;;;;;;;4962708;28;20058;-68
2023/03/26 02:52:06;;;;;;;25.45;4.50;;;;;;;;;;4962538;28;20047;-68
2023/03/26 02:54:33;;;;;;;21.52;3.78;;;;;;;;;;4960682;28;20039;-68
2023/03/26 02:57:00;;;;;;;26.75;3.97;;;;;;;;;;4962388;28;20046;-68
2023/03/26 02:59:26;;;;;;;20.02;4.18;;;;;;;;;;4958460;28;20051;-69
2023/03/26 03:01:53;;;;;;;26.27;3.13;;;;;;;;;;4958195;28;20500;-68
2023/03/26 03:04:19;;;;;;;24.58;4.22;;;;;;;;;;4958546;28;20435;-68
2023/03/26 03:06:45;;;;;;;28.48;4.10;;;;;;;;;;4959972;28;20047;-68
2023/03/26 03:09:11;;;;;;;24.92;4.93;;;;;;;;;;4959372;28;20047;-68
2023/03/26 03:11:39;;;;;;;27.40;3.67;;;;;;;;;;4961296;28;20131;-68
2023/03/26 03:14:05;;;;;;;25.42;3.97;;;;;;;;;;4943069;28;20085;-68
2023/03/26 03:16:32;;;;;;;19.40;3.30;;;;;;;;;;4960190;28;20133;-68
2023/03/26 03:18:58;;;;;;;18.08;3.63;;;;;;;;;;4961839;28;20149;-68
2023/03/26 03:21:25;;;;;;;25.27;3.28;;;;;;;;;;4962697;28;20471;-68
2023/03/26 03:23:52;;;;;;;28.90;4.05;;;;;;;;;;4960871;28;20051;-68
2023/03/26 03:26:20;;;;;;;21.98;3.10;;;;;;;;;;4961287;28;20490;-68
2023/03/26 03:28:47;;;;;;;17.42;3.33;;;;;;;;;;4961968;28;20046;-68
2023/03/26 03:31:14;;;;;;;24.70;3.42;;;;;;;;;;4949306;28;20141;-68
2023/03/26 03:33:41;;;;;;;27.77;4.00;;;;;;;;;;4964318;28;20097;-68
2023/03/26 03:36:09;;;;;;;27.58;3.15;;;;;;;;;;4965806;28;21691;-68
2023/03/26 03:38:37;;;;;;;23.75;3.80;;;;;;;;;;4962235;28;20058;-68
2023/03/26 03:41:03;;;;;;;25.65;4.07;;;;;;;;;;4962863;28;20051;-68
2023/03/26 03:43:31;;;;;;;21.40;3.47;;;;;;;;;;4961083;28;20051;-68
2023/03/26 03:45:58;;;;;;;16.90;3.10;;;;;;;;;;4947549;28;20070;-69
2023/03/26 03:48:24;;;;;;;23.15;3.13;;;;;;;;;;4960008;28;20476;-69
2023/03/26 03:50:50;;;;;;;23.88;4.53;;;;;;;;;;4963112;28;20046;-68
2023/03/26 03:53:17;;;;;;;22.92;3.33;;;;;;;;;;4961191;28;20047;-68
2023/03/26 03:55:51;;;;;;;26.38;3.58;;;;;;;;;;4961660;28;20058;-68
2023/03/26 03:58:21;;;;;;;24.30;3.88;;;;;;;;;;4961955;28;20053;-68
2023/03/26 04:00:49;;;;;;;20.58;3.25;;;;;;;;;;4962753;28;20050;-68
2023/03/26 04:03:15;;;;;;;18.15;3.03;;;;;;;;;;4962626;28;20105;-68
2023/03/26 04:05:42;;;;;;;19.77;2.80;;;;;;;;;;4966483;28;20106;-68
2023/03/26 04:08:08;;;;;;;26.27;3.83;;;;;;;;;;4966204;28;20047;-68
2023/03/26 04:10:34;;;;;;;17.63;3.40;;;;;;;;;;4968555;28;20463;-68
2023/03/26 04:13:01;;;;;;;15.00;3.20;;;;;;;;;;4968272;28;20490;-68
2023/03/26 04:15:27;;;;;;;19.77;3.15;;;;;;;;;;4965479;28;20050;-68
2023/03/26 04:17:53;;;;;;;24.40;2.90;;;;;;;;;;4964821;28;20038;-68
2023/03/26 04:20:19;;;;;;;19.90;3.08;;;;;;;;;;4965036;28;20097;-68
2023/03/26 04:22:46;;;;;;;22.13;2.72;;;;;;;;;;4963602;28;20467;-68
2023/03/26 04:25:14;;;;;;;27.75;4.05;;;;;;;;;;4964222;28;20117;-68
2023/03/26 04:27:42;;;;;;;22.60;3.25;;;;;;;;;;4965162;28;20173;-68
2023/03/26 04:30:13;;;;;;;14.40;2.92;;;;;;;;;;4963252;28;20066;-68
2023/03/26 04:32:41;;;;;;;19.95;3.20;;;;;;;;;;4961702;28;20106;-68
2023/03/26 04:35:08;;;;;;;13.27;2.80;;;;;;;;;;4945703;28;20077;-68
2023/03/26 04:37:38;;;;;;;20.50;2.90;;;;;;;;;;4959704;28;20163;-69
2023/03/26 04:40:12;;;;;;;20.02;2.88;;;;;;;;;;4943008;28;20086;-68
2023/03/26 04:42:44;;;;;;;21.13;3.25;;;;;;;;;;4962325;28;20066;-68
2023/03/26 04:45:11;;;;;;;17.02;3.50;;;;;;;;;;4960853;28;20055;-68
2023/03/26 04:47:37;;;;;;;19.23;2.90;;;;;;;;;;4960782;28;20043;-68
2023/03/26 04:50:06;;;;;;;14.02;2.58;;;;;;;;;;4941321;28;20038;-68
2023/03/26 04:52:32;;;;;;;16.90;3.13;;;;;;;;;;4963129;28;20061;-68
2023/03/26 04:54:59;;;;;;;19.52;3.03;;;;;;;;;;4962589;28;20070;-68
2023/03/26 04:57:26;;;;;;;19.13;3.40;;;;;;;;;;4963757;28;20043;-68
2023/03/26 04:59:52;;;;;;;16.33;2.60;;;;;;;;;;4946904;28;20050;-68
2023/03/26 05:02:19;;;;;;;17.85;2.65;;;;;;;;;;4964086;28;20057;-68
2023/03/26 05:04:45;;;;;;;11.02;2.72;;;;;;;;;;4962281;28;20478;-68
2023/03/26 05:07:15;;;;;;;18.45;2.78;;;;;;;;;;4964686;28;20051;-69
2023/03/26 05:09:41;;;;;;;26.65;3.03;;;;;;;;;;4965545;28;20123;-68
2023/03/26 05:12:07;;;;;;;18.20;2.65;;;;;;;;;;4962119;28;20589;-68
2023/03/26 05:14:35;;;;;;;19.27;2.90;;;;;;;;;;4945233;28;20501;-68
2023/03/26 05:17:04;;;;;;;21.17;4.28;;;;;;;;;;4962155;28;20051;-68
2023/03/26 05:19:31;;;;;;;25.20;2.90;;;;;;;;;;4959152;28;20047;-69
2023/03/26 05:21:57;;;;;;;17.50;2.58;;;;;;;;;;4947291;28;20039;-69
2023/03/26 05:24:23;;;;;;;25.63;3.70;;;;;;;;;;4962485;28;20085;-68
2023/03/26 05:26:50;;;;;;;14.18;2.45;;;;;;;;;;4960124;28;20054;-69
2023/03/26 05:29:17;;;;;;;18.15;3.72;;;;;;;;;;4943309;28;20295;-69
2023/03/26 05:31:43;;;;;;;29.95;3.92;;;;;;;;;;4959019;28;20141;-68
2023/03/26 05:34:10;;;;;;;14.48;2.28;;;;;;;;;;4958117;28;20123;-68
2023/03/26 05:36:36;;;;;;;26.85;3.53;;;;;;;;;;4941476;28;20086;-68
2023/03/26 05:39:03;;;;;;;24.05;2.92;;;;;;;;;;4958691;28;20070;-68
2023/03/26 05:41:29;;;;;;;24.98;3.00;;;;;;;;;;4959970;28;20051;-68
2023/03/26 05:43:56;;;;;;;20.85;4.18;;;;;;;;;;4945326;28;20109;-68
2023/03/26 05:46:22;;;;;;;24.92;3.78;;;;;;;;;;4945585;28;21527;-68
2023/03/26 05:48:48;;;;;;;31.92;3.63;;;;;;;;;;4963031;28;20042;-69
2023/03/26 05:51:15;;;;;;;21.60;3.35;;;;;;;;;;4959297;28;20057;-68
2023/03/26 05:53:41;;;;;;;22.55;3.15;;;;;;;;;;4939849;28;20054;-68
2023/03/26 05:56:08;;;;;;;20.92;2.42;;;;;;;;;;4958403;28;20495;-68
2023/03/26 05:58:34;;;;;;;21.13;3.22;;;;;;;;;;4959648;28;20050;-68
2023/03/26 06:01:04;;;;;;;22.48;3.42;;;;;;;;;;4961881;28;20084;-68
2023/03/26 06:03:31;;;;;;;27.88;4.00;;;;;;;;;;4961635;28;20054;-68
2023/03/26 06:05:58;;;;;;;17.95;3.15;;;;;;;;;;4945339;28;20513;-68
2023/03/26 06:08:24;;;;;;;22.35;3.50;;;;;;;;;;4960743;28;20043;-68
2023/03/26 06:10:51;;;;;;;22.48;3.80;;;;;;;;;;4939943;28;20101;-68
2023/03/26 06:13:17;;;;;;;20.38;3.40;;;;;;;;;;4946622;28;20058;-67
2023/03/26 06:15:44;;;;;;;23.33;3.08;;;;;;;;;;4964051;28;20123;-68
2023/03/26 06:18:10;;;;;;;29.85;3.97;;;;;;;;;;4955762;28;20050;-68
2023/03/26 06:20:36;;;;;;;14.23;2.85;;;;;;;;;;4941070;28;20376;-68
2023/03/26 06:23:03;;;;;;;19.80;2.83;;;;;;;;;;4940600;28;20053;-68
2023/03/26 06:25:29;;;;;;;25.60;3.33;;;;;;;;;;4958772;28;20047;-68
2023/03/26 06:27:55;;;;;;;24.00;4.85;;;;;;;;;;4955296;28;20050;-68
2023/03/26 06:30:21;;;;;;;23.38;4.15;;;;;;;;;;4958707;28;20089;-68
2023/03/26 06:32:48;;;;;;;18.40;3.38;;;;;;;;;;4962009;28;20494;-68
2023/03/26 06:35:14;;;;;;;31.13;4.63;;;;;;;;;;4964659;28;20054;-69
2023/03/26 06:37:41;;;;;;;21.27;3.75;;;;;;;;;;4962458;28;20095;-68
2023/03/26 06:40:07;;;;;;;26.77;4.40;;;;;;;;;;4963655;28;20069;-68
2023/03/26 06:42:34;;;;;;;26.98;4.15;;;;;;;;;;4959798;28;20043;-68
2023/03/26 06:45:00;;;;;;;14.88;3.28;;;;;;;;;;4964892;28;20069;-68
2023/03/26 06:47:26;;;;;;;24.52;3.30;;;;;;;;;;4963651;28;20533;-68
2023/03/26 06:49:53;;;;;;;20.60;3.05;;;;;;;;;;4966771;28;20144;-68
2023/03/26 06:52:19;;;;;;;17.40;3.00;;;;;;;;;;4963922;28;20454;-67
2023/03/26 06:54:45;;;;;;;18.70;3.30;;;;;;;;;;4962273;28;20038;-69
2023/03/26 06:57:11;;;;;;;19.92;4.15;;;;;;;;;;4942344;28;20141;-69
2023/03/26 06:59:37;;;;;;;28.55;4.95;;;;;;;;;;4960885;28;20077;-68
2023/03/26 07:02:04;;;;;;;23.23;3.85;;;;;;;;;;4942195;28;20055;-69
2023/03/26 07:04:30;;;;;;;18.13;3.63;;;;;;;;;;4957708;28;20047;-68
2023/03/26 07:06:56;;;;;;;16.45;3.33;;;;;;;;;;4959726;28;20054;-68
2023/03/26 07:09:22;;;;;;;18.08;3.50;;;;;;;;;;4946787;28;20066;-69
2023/03/26 07:11:48;;;;;;;22.58;3.47;;;;;;;;;;4961711;28;20054;-67
2023/03/26 07:14:14;;;;;;;24.63;3.53;;;;;;;;;;4964589;28;20250;-68
2023/03/26 07:16:41;;;;;;;17.50;3.58;;;;;;;;;;4945556;28;20046;-67
2023/03/26 07:19:07;;;;;;;18.08;3.17;;;;;;;;;;4945391;28;20414;-67
2023/03/26 07:21:33;;;;;;;19.13;4.13;;;;;;;;;;4961781;28;20571;-67
2023/03/26 07:23:59;;;;;;;16.50;3.78;;;;;;;;;;4961223;28;20039;-67
2023/03/26 07:26:43;;;;;;;18.90;2.90;;;;;;;;;;4961699;28;20491;-66
2023/03/26 07:29:15;;;;;;;13.75;3.40;;;;;;;;;;4943548;28;20054;-66
2023/03/26 07:31:44;;;;;;;18.75;3.70;;;;;;;;;;4948952;28;20066;-67
2023/03/26 07:34:29;;;;;;;26.75;3.92;;;;;;;;;;4965618;28;20070;-65
2023/03/26 07:37:07;;;;;;;16.15;3.03;;;;;;;;;;4963429;28;20053;-67
2023/03/26 07:39:45;;;;;;;24.20;4.68;;;;;;;;;;4954519;28;20109;-65
2023/03/26 07:42:20;;;;;;;28.50;3.38;;;;;;;;;;4963528;28;20051;-65
2023/03/26 07:44:59;;;;;;;24.55;3.53;;;;;;;;;;4967004;28;20084;-64
2023/03/26 07:47:32;;;;;;;15.05;3.55;;;;;;;;;;4965722;28;20399;-65
2023/03/26 07:49:59;;;;;;;25.98;4.32;;;;;;;;;;4965449;28;20143;-65
2023/03/26 07:52:25;;;;;;;14.98;3.08;;;;;;;;;;4964434;28;20035;-65
2023/03/26 07:54:52;;;;;;;16.55;2.95;;;;;;;;;;4962058;28;20117;-66
2023/03/26 07:57:25;;;;;;;15.25;3.00;;;;;;;;;;4964162;28;20043;-65
2023/03/26 07:59:55;;;;;;;18.67;2.85;;;;;;;;;;4965426;28;20050;-66
2023/03/26 08:02:22;;;;;;;20.15;3.45;;;;;;;;;;4965684;28;20042;-66
2023/03/26 08:04:48;;;;;;;23.17;3.50;;;;;;;;;;4964478;28;20050;-66
2023/03/26 08:07:18;;;;;;;23.02;3.33;;;;;;;;;;4964651;28;20061;-66
2023/03/26 08:09:52;;;;;;;22.05;3.95;;;;;;;;;;4967072;28;20497;-65
2023/03/26 08:12:24;;;;;;;17.27;2.95;;;;;;;;;;4966551;28;20054;-65
2023/03/26 08:15:03;;;;;;;23.35;3.47;;;;;;;;;;4965516;28;20042;-65
2023/03/26 08:17:48;;;;;;;13.98;2.78;;;;;;;;;;4963937;28;20101;-65
2023/03/26 08:20:20;;;;;;;15.70;3.08;;;;;;;;;;4966847;28;20193;-64
2023/03/26 08:22:50;;;;;;;15.77;3.95;;;;;;;;;;4964298;28;20503;-65
2023/03/26 08:25:31;;;;;;;12.27;2.33;;;;;;;;;;4965066;28;20086;-65
2023/03/26 08:28:16;;;;;;;18.58;2.90;;;;;;;;;;4964482;28;20155;-64
2023/03/26 08:30:43;;;;;;;19.27;2.58;;;;;;;;;;4964930;28;20049;-65
2023/03/26 08:33:15;;;;;;;19.48;2.65;;;;;;;;;;4965436;28;20410;-64
2023/03/26 08:35:42;;;;;;;18.92;2.83;;;;;;;;;;4945146;28;20065;-66
2023/03/26 08:38:09;;;;;;;20.75;3.10;;;;;;;;;;4964489;28;20074;-66
2023/03/26 08:40:38;;;;;;;18.05;2.60;;;;;;;;;;4965754;28;20049;-66
2023/03/26 08:43:13;;;;;;;20.05;3.60;;;;;;;;;;4946183;28;20509;-65
2023/03/26 08:45:54;;;;;;;13.45;3.13;;;;;;;;;;4964611;28;20047;-66
2023/03/26 08:48:34;;;;;;;20.20;2.70;;;;;;;;;;4962823;28;20056;-66
2023/03/26 08:51:12;;;;;;;12.10;2.53;;;;;;;;;;4962978;28;20161;-66
2023/03/26 08:53:45;;;;;;;16.23;3.17;;;;;;;;;;4964435;28;20422;-66
2023/03/26 08:56:12;;;;;;;17.33;3.00;;;;;;;;;;4963816;28;20053;-67
2023/03/26 08:58:47;;;;;;;22.92;3.17;;;;;;;;;;4963950;28;20053;-66
2023/03/26 09:01:23;;;;;;;17.33;2.40;;;;;;;;;;4963847;28;20043;-66
2023/03/26 09:04:03;;;;;;;14.18;2.97;;;;;;;;;;4963063;28;20444;-66
2023/03/26 09:06:41;;;;;;;14.20;3.10;;;;;;;;;;4962734;28;20087;-65
2023/03/26 09:09:26;;;;;;;14.13;2.15;;;;;;;;;;4966249;28;20043;-67
2023/03/26 09:12:14;;;;;;;16.88;2.58;;;;;;;;;;4964766;28;20066;-67
2023/03/26 09:14:47;;;;;;;16.05;2.97;;;;;;;;;;4963931;28;20109;-66
2023/03/26 09:17:22;;;;;;;17.42;3.08;;;;;;;;;;4966754;28;20093;-66
2023/03/26 09:20:18;;;;;;;11.05;2.53;;;;;;;;;;4967798;28;21712;-66
2023/03/26 09:22:57;;;;;;;14.23;2.58;;;;;;;;;;4968418;28;20047;-66
2023/03/26 09:25:27;;;;;;;16.73;2.85;;;;;;;;;;4967924;28;20108;-66
2023/03/26 09:28:01;;;;;;;15.30;3.17;;;;;;;;;;4968275;28;20510;-65
2023/03/26 09:30:32;;;;;;;13.93;2.10;;;;;;;;;;4950344;28;21096;-66
2023/03/26 09:33:08;;;;;;;15.70;2.83;;;;;;;;;;4942139;28;20533;-74
2023/03/26 09:35:51;;;;;;;11.13;2.72;;;;;;;;;;4952598;28;20548;-71
2023/03/26 09:38:26;;;;;;;20.92;3.05;;;;;;;;;;4951352;28;20053;-76
2023/03/26 09:41:06;;;;;;;14.23;3.53;;;;;;;;;;4952008;28;20524;-63
2023/03/26 09:43:41;;;;;;;14.55;2.38;;;;;;;;;;4951615;28;20051;-74
2023/03/26 09:46:17;;;;;;;13.55;2.72;;;;;;;;;;4944987;28;20069;-67
2023/03/26 09:48:43;;;;;;;17.02;2.90;;;;;;;;;;4963535;28;20514;-69
2023/03/26 09:51:18;;;;;;;14.55;2.60;;;;;;;;;;4940892;28;20098;-69
2023/03/26 09:53:51;;;;;;;17.80;3.20;;;;;;;;;;4959043;28;20166;-70
2023/03/26 09:56:17;;;;;;;18.92;3.55;;;;;;;;;;4942645;28;20424;-70
2023/03/26 09:58:54;;;;;;;17.27;2.67;;;;;;;;;;4959927;28;20050;-70
2023/03/26 10:01:31;;;;;;;15.35;2.55;;;;;;;;;;4939707;28;20050;-70
2023/03/26 10:04:00;;;;;;;14.20;2.97;;;;;;;;;;4958706;28;20046;-70
2023/03/26 10:06:40;;;;;;;18.33;2.63;;;;;;;;;;4956887;28;20344;-69
2023/03/26 10:09:06;;;;;;;16.50;2.33;;;;;;;;;;4944525;28;20502;-70
2023/03/26 10:11:55;;;;;;;17.33;3.88;;;;;;;;;;4944277;28;20042;-70
2023/03/26 10:14:34;;;;;;;14.52;2.95;;;;;;;;;;4944506;28;20074;-72
2023/03/26 10:17:09;;;;;;;15.15;3.15;;;;;;;;;;4945157;28;20197;-72
2023/03/26 10:19:42;;;;;;;15.57;2.90;;;;;;;;;;4943808;28;20057;-68
2023/03/26 10:22:33;;;;;;;16.27;2.92;;;;;;;;;;4961610;28;20769;-74
2023/03/26 10:25:13;;;;;;;16.40;3.22;;;;;;;;;;4949656;28;20096;-72
2023/03/26 10:27:54;;;;;;;17.65;3.40;;;;;;;;;;4959460;28;20364;-73
2023/03/26 10:30:28;;;;;;;18.15;3.00;;;;;;;;;;4959818;28;20066;-74
2023/03/26 10:33:17;;;;;;;20.27;2.88;;;;;;;;;;4962633;28;20057;-66
2023/03/26 10:35:48;;;;;;;16.05;3.08;;;;;;;;;;4960643;28;20050;-64
2023/03/26 10:38:29;;;;;;;14.93;2.20;;;;;;;;;;4957962;28;20047;-64
2023/03/26 10:41:06;;;;;;;14.18;3.05;;;;;;;;;;4961206;28;20129;-80
2023/03/26 10:43:51;;;;;;;16.77;2.40;;;;;;;;;;4963245;28;20131;-65
2023/03/26 10:46:24;;;;;;;17.90;2.90;;;;;;;;;;4965195;28;20042;-73
2023/03/26 10:48:50;;;;;;;13.07;2.55;;;;;;;;;;4966371;28;20046;-64
2023/03/26 10:51:27;;;;;;;28.58;4.05;;;;;;;;;;4963416;28;20051;-64
2023/03/26 10:53:55;;;;;;;23.25;3.20;;;;;;;;;;4966208;28;20078;-64
2023/03/26 10:56:27;;;;;;;14.57;2.13;;;;;;;;;;4965748;28;20100;-65
2023/03/26 10:58:54;;;;;;;17.27;3.20;;;;;;;;;;4966424;28;20043;-65
2023/03/26 11:01:30;;;;;;;14.30;2.97;;;;;;;;;;4960882;28;20039;-66
2023/03/26 11:03:58;;;;;;;14.38;2.33;;;;;;;;;;4960602;28;20047;-65
2023/03/26 11:06:40;;;;;;;16.75;2.67;;;;;;;;;;4962148;28;20043;-65
2023/03/26 11:09:06;;;;;;;21.90;3.33;;;;;;;;;;4963695;28;20047;-90
2023/03/26 11:11:40;;;;;;;14.85;2.40;;;;;;;;;;4957481;28;20077;-66
2023/03/26 11:14:20;;;;;;;10.70;2.25;;;;;;;;;;4963428;28;20137;-66
2023/03/26 11:16:59;;;;;;;16.02;2.30;;;;;;;;;;4962332;28;20125;-66
2023/03/26 11:19:38;;;;;;;13.70;2.38;;;;;;;;;;4963761;28;20542;-66
2023/03/26 11:22:05;;;;;;;14.98;3.00;;;;;;;;;;4962331;28;20049;-66
2023/03/26 11:24:31;;;;;;;13.27;2.50;;;;;;;;;;4963413;28;20097;-66
2023/03/26 11:27:00;;;;;;;14.00;2.40;;;;;;;;;;4964578;28;20069;-66
2023/03/26 11:29:27;;;;;;;12.70;2.38;;;;;;;;;;4964716;28;20070;-66
2023/03/26 11:32:00;;;;;;;9.38;1.95;;;;;;;;;;4961855;28;20051;-65
2023/03/26 11:34:31;;;;;;;11.30;2.57;;;;;;;;;;4958350;28;20073;-72
2023/03/26 11:36:58;;;;;;;12.93;2.60;;;;;;;;;;4961301;28;20375;-66
2023/03/26 11:39:27;;;;;;;11.82;2.60;;;;;;;;;;4962946;28;20409;-66
2023/03/26 11:42:00;;;;;;;17.83;2.47;;;;;;;;;;4963195;28;20047;-65
2023/03/26 11:44:28;;;;;;;14.80;2.55;;;;;;;;;;4962379;28;20061;-65
2023/03/26 11:46:57;;;;;;;10.00;2.72;;;;;;;;;;4963878;28;20055;-65
2023/03/26 11:49:25;;;;;;;13.07;2.50;;;;;;;;;;4963681;28;20078;-66
2023/03/26 11:51:51;;;;;;;15.60;2.47;;;;;;;;;;4945333;28;20439;-65
2023/03/26 11:54:19;;;;;;;12.68;2.38;;;;;;;;;;4962449;28;20401;-65
2023/03/26 11:56:48;;;;;;;11.95;2.35;;;;;;;;;;4962478;28;20549;-65
2023/03/26 11:59:18;;;;;;;15.82;2.72;;;;;;;;;;4960889;28;20094;-65
2023/03/26 12:01:51;;;;;;;17.95;2.35;;;;;;;;;;4962689;28;20043;-66
2023/03/26 12:04:19;;;;;;;19.35;3.08;;;;;;;;;;4962974;28;20054;-65
2023/03/26 12:06:55;;;;;;;10.60;2.10;;;;;;;;;;4959058;28;20046;-65
2023/03/26 12:09:21;;;;;;;11.35;2.35;;;;;;;;;;4961825;28;20047;-66
2023/03/26 12:11:49;;;;;;;15.77;2.78;;;;;;;;;;4959821;28;20058;-66
2023/03/26 12:14:18;;;;;;;16.23;2.83;;;;;;;;;;4959412;28;20073;-65
2023/03/26 12:17:05;;;;;;;15.70;3.00;;;;;;;;;;4960306;28;20049;-65
2023/03/26 12:19:39;;;;;;;11.85;2.38;;;;;;;;;;4962521;28;20494;-65
2023/03/26 12:22:05;;;;;;;8.98;2.35;;;;;;;;;;4945080;28;20047;-65
2023/03/26 12:24:33;;;;;;;19.00;3.25;;;;;;;;;;4961564;28;20435;-65
2023/03/26 12:27:19;;;;;;;14.30;2.05;;;;;;;;;;4959893;28;20424;-63
2023/03/26 12:29:49;;;;;;;10.90;2.15;;;;;;;;;;4960841;28;20078;-64
2023/03/26 12:32:15;;;;;;;13.65;2.25;;;;;;;;;;4958050;28;20058;-64
2023/03/26 12:34:42;;;;;;;11.00;1.98;;;;;;;;;;4959421;28;20046;-64
2023/03/26 12:37:28;;;;;;;31.88;12.10;;;;;;;;;;4962565;28;20129;-64
2023/03/26 12:40:05;;;;;;;17.88;3.17;;;;;;;;;;4944751;28;20057;-64
2023/03/26 12:42:32;;;;;;;11.70;2.20;;;;;;;;;;4960527;28;20050;-64
2023/03/26 12:44:59;;;;;;;13.18;2.97;;;;;;;;;;4962768;28;20035;-64
2023/03/26 12:47:30;;;;;;;10.20;2.40;;;;;;;;;;4962019;28;20446;-65
2023/03/26 12:49:57;;;;;;;12.73;2.35;;;;;;;;;;4961798;28;20146;-65
2023/03/26 12:52:33;;;;;;;12.05;1.85;;;;;;;;;;4960109;28;21048;-64
2023/03/26 12:55:01;;;;;;;15.10;2.58;;;;;;;;;;4957269;28;20100;-64
2023/03/26 12:57:31;;;;;;;15.25;2.65;;;;;;;;;;4960215;28;20702;-65
2023/03/26 13:00:20;;;;;;;14.88;2.22;;;;;;;;;;4964515;28;20034;-64
2023/03/26 13:02:54;;;;;;;12.25;2.40;;;;;;;;;;4959366;28;20047;-66
2023/03/26 13:05:38;;;;;;;14.65;2.30;;;;;;;;;;4962616;28;20050;-65
2023/03/26 13:08:05;;;;;;;9.55;2.08;;;;;;;;;;4946259;28;20064;-65
2023/03/26 13:10:48;;;;;;;14.85;2.17;;;;;;;;;;4963190;28;20418;-65
2023/03/26 13:13:33;;;;;;;14.52;2.03;;;;;;;;;;4966565;28;20055;-66
2023/03/26 13:16:04;;;;;;;9.25;1.73;;;;;;;;;;4958578;28;20126;-65
2023/03/26 13:18:37;;;;;;;9.50;1.63;;;;;;;;;;4963624;28;20185;-66
2023/03/26 13:21:03;;;;;;;8.90;1.70;;;;;;;;;;4943927;28;20478;-65
2023/03/26 13:23:32;;;;;;;9.75;2.03;;;;;;;;;;4960388;28;20069;-65
2023/03/26 13:26:05;;;;;;;11.98;2.42;;;;;;;;;;4946625;28;20054;-65
2023/03/26 13:28:37;;;;;;;10.73;1.90;;;;;;;;;;4957879;28;20451;-64
2023/03/26 13:31:19;;;;;;;10.73;1.98;;;;;;;;;;4966091;28;20063;-65
2023/03/26 13:33:46;;;;;;;13.45;2.58;;;;;;;;;;4961346;28;20116;-64
2023/03/26 13:36:12;;;;;;;13.13;2.47;;;;;;;;;;4958710;28;20073;-64
2023/03/26 13:38:39;;;;;;;12.32;2.50;;;;;;;;;;4960615;28;20378;-64
2023/03/26 13:41:11;;;;;;;15.00;2.72;;;;;;;;;;4960211;28;20510;-64
2023/03/26 13:43:41;;;;;;;19.48;2.47;;;;;;;;;;4962246;28;20078;-64
2023/03/26 13:46:08;;;;;;;16.60;2.47;;;;;;;;;;4961044;28;20074;-64
2023/03/26 13:48:40;;;;;;;7.82;1.58;;;;;;;;;;4961348;28;20134;-65
2023/03/26 13:51:11;;;;;;;13.88;2.75;;;;;;;;;;4961398;28;20466;-65
2023/03/26 13:53:43;;;;;;;12.60;2.15;;;;;;;;;;4942874;28;20050;-65
2023/03/26 13:56:11;;;;;;;16.85;2.28;;;;;;;;;;4960528;28;20047;-65
2023/03/26 13:58:41;;;;;;;8.38;1.92;;;;;;;;;;4942793;28;20149;-65
2023/03/26 14:01:11;;;;;;;15.73;2.95;;;;;;;;;;4961415;28;20051;-64
2023/03/26 14:03:53;;;;;;;19.38;3.17;;;;;;;;;;4941567;28;20130;-65
2023/03/26 14:06:22;;;;;;;13.70;2.35;;;;;;;;;;4960596;28;20156;-65
2023/03/26 14:08:54;;;;;;;14.23;2.00;;;;;;;;;;4958672;28;20130;-65
2023/03/26 14:11:24;;;;;;;17.50;2.30;;;;;;;;;;4961083;28;20105;-65
2023/03/26 14:13:55;;;;;;;13.77;2.42;;;;;;;;;;4961939;28;20066;-66
2023/03/26 14:16:23;;;;;;;11.18;2.08;;;;;;;;;;4961946;28;20034;-65
2023/03/26 14:18:53;;;;;;;17.70;3.00;;;;;;;;;;4961363;28;20054;-65
2023/03/26 14:21:28;;;;;;;12.52;2.35;;;;;;;;;;4958965;28;20058;-64
2023/03/26 14:23:56;;;;;;;14.50;2.47;;;;;;;;;;4941853;28;20057;-66
2023/03/26 14:26:25;;;;;;;12.25;2.33;;;;;;;;;;4960598;28;20045;-65
2023/03/26 14:28:58;;;;;;;10.40;1.60;;;;;;;;;;4959228;28;20046;-65
2023/03/26 14:31:36;;;;;;;11.05;1.75;;;;;;;;;;4962001;28;20453;-67
2023/03/26 14:34:15;;;;;;;15.35;2.38;;;;;;;;;;4942219;28;20053;-65
2023/03/26 14:36:53;;;;;;;13.82;2.63;;;;;;;;;;4960817;28;20054;-65
2023/03/26 14:39:37;;;;;;;8.00;1.70;;;;;;;;;;4958830;28;20046;-64
2023/03/26 14:42:06;;;;;;;14.98;1.90;;;;;;;;;;4962804;28;20447;-65
2023/03/26 14:44:41;;;;;;;15.23;2.65;;;;;;;;;;4960037;28;20046;-67
2023/03/26 14:47:10;;;;;;;10.02;1.98;;;;;;;;;;4961259;28;20379;-65
2023/03/26 14:49:37;;;;;;;13.40;2.30;;;;;;;;;;4955280;28;20866;-65